createdAt,value
2017-11-15T00:05:27.253Z,7.90
2017-11-15T00:07:55.439Z,7.90
2017-11-15T00:10:23.625Z,7.90
2017-11-15T00:12:51.821Z,7.90
2017-11-15T00:15:36.880Z,7.90
2017-11-15T00:18:05.041Z,7.90
2017-11-15T00:20:33.312Z,7.90
2017-11-15T00:23:26.820Z,7.90
2017-11-15T00:25:55.017Z,7.90
2017-11-15T00:28:23.274Z,7.90
2017-11-15T00:30:51.489Z,7.90
2017-11-15T00:33:19.644Z,7.90
2017-11-15T00:38:58.042Z,7.90
2017-11-15T00:44:28.235Z,7.90
2017-11-15T00:46:56.722Z,7.90
2017-11-15T00:49:28.031Z,7.90
2017-11-15T00:51:56.205Z,7.90
2017-11-15T00:54:24.470Z,7.90
2017-11-15T00:56:52.649Z,7.90
2017-11-15T00:59:20.992Z,7.90
2017-11-15T01:04:58.447Z,7.90
2017-11-15T01:10:55.055Z,7.90
2017-11-15T01:13:23.201Z,7.90
2017-11-15T01:19:03.142Z,7.90
2017-11-15T01:24:40.682Z,7.90
2017-11-15T01:30:18.883Z,7.90
2017-11-15T01:35:47.006Z,8.00
2017-11-15T01:41:23.668Z,8.00
2017-11-15T01:43:52.668Z,8.00
2017-11-15T01:46:20.841Z,8.00
2017-11-15T01:48:48.999Z,8.00
2017-11-15T01:51:27.473Z,8.00
2017-11-15T01:53:56.376Z,8.00
2017-11-15T01:56:24.602Z,8.00
2017-11-15T01:58:52.886Z,8.10
2017-11-15T02:01:21.027Z,8.10
2017-11-15T02:03:49.345Z,8.10
2017-11-15T02:06:17.494Z,8.10
2017-11-15T02:08:45.696Z,8.10
2017-11-15T02:11:13.903Z,8.10
2017-11-15T02:19:52.152Z,8.10
2017-11-15T02:22:20.293Z,8.10
2017-11-15T02:30:41.916Z,8.00
2017-11-15T02:33:10.070Z,8.00
2017-11-15T02:35:57.415Z,8.00
2017-11-15T02:38:45.424Z,8.00
2017-11-15T02:41:13.579Z,8.10
2017-11-15T02:46:35.913Z,8.10
2017-11-15T02:49:04.069Z,8.10
2017-11-15T02:51:51.299Z,8.10
2017-11-15T02:54:19.534Z,8.10
2017-11-15T02:56:47.701Z,8.10
2017-11-15T02:59:15.892Z,8.10
2017-11-15T03:01:44.104Z,8.10
2017-11-15T03:04:12.508Z,8.10
2017-11-15T03:06:58.036Z,8.10
2017-11-15T03:09:26.240Z,8.10
2017-11-15T03:11:54.398Z,8.10
2017-11-15T03:14:22.573Z,8.10
2017-11-15T03:16:50.849Z,8.10
2017-11-15T03:22:21.951Z,8.10
2017-11-15T03:24:50.160Z,8.10
2017-11-15T03:27:27.743Z,8.10
2017-11-15T03:29:56.131Z,8.10
2017-11-15T03:32:24.348Z,8.10
2017-11-15T03:38:02.729Z,8.10
2017-11-15T03:40:31.101Z,8.10
2017-11-15T03:42:59.299Z,8.10
2017-11-15T03:45:27.420Z,8.10
2017-11-15T03:47:59.512Z,8.10
2017-11-15T03:50:27.647Z,8.10
2017-11-15T03:52:55.810Z,8.10
2017-11-15T03:55:24.011Z,8.10
2017-11-15T03:57:52.201Z,8.10
2017-11-15T04:00:20.509Z,8.10
2017-11-15T04:08:53.989Z,8.10
2017-11-15T04:11:27.945Z,8.10
2017-11-15T04:13:56.173Z,8.10
2017-11-15T04:16:30.061Z,8.10
2017-11-15T04:18:58.989Z,8.10
2017-11-15T04:21:47.453Z,8.10
2017-11-15T04:24:16.562Z,8.10
2017-11-15T04:26:44.795Z,8.10
2017-11-15T04:29:13.158Z,8.10
2017-11-15T04:31:41.843Z,8.10
2017-11-15T04:34:10.028Z,8.20
2017-11-15T04:36:48.395Z,8.20
2017-11-15T04:39:16.576Z,8.20
2017-11-15T04:41:44.761Z,8.20
2017-11-15T04:44:12.931Z,8.20
2017-11-15T04:47:07.483Z,8.20
2017-11-15T04:49:48.441Z,8.20
2017-11-15T04:52:31.372Z,8.20
2017-11-15T04:55:33.279Z,8.20
2017-11-15T05:07:32.706Z,8.20
2017-11-15T05:13:05.788Z,8.10
2017-11-15T05:19:31.237Z,8.20
2017-11-15T05:33:30.525Z,8.20
2017-11-15T05:36:03.565Z,8.20
2017-11-15T05:38:35.706Z,8.20
2017-11-15T05:48:56.925Z,8.30
2017-11-15T05:51:25.077Z,8.30
2017-11-15T05:53:53.670Z,8.30
2017-11-15T05:56:28.843Z,8.30
2017-11-15T05:58:57.268Z,8.40
2017-11-15T06:01:25.635Z,8.40
2017-11-15T06:07:10.104Z,8.40
2017-11-15T06:09:38.348Z,8.50
2017-11-15T06:15:18.586Z,8.50
2017-11-15T06:17:47.747Z,8.50
2017-11-15T06:20:16.146Z,8.50
2017-11-15T06:22:47.754Z,8.50
2017-11-15T06:25:16.126Z,8.50
2017-11-15T06:27:45.678Z,8.50
2017-11-15T06:30:17.121Z,8.50
2017-11-15T06:38:54.093Z,8.60
2017-11-15T06:41:22.391Z,8.60
2017-11-15T06:44:07.759Z,8.60
2017-11-15T06:46:36.736Z,8.60
2017-11-15T06:52:15.056Z,8.70
2017-11-15T06:54:43.327Z,8.70
2017-11-15T06:57:19.383Z,8.70
2017-11-15T07:00:08.099Z,8.70
2017-11-15T07:02:37.908Z,8.70
2017-11-15T07:08:18.383Z,8.70
2017-11-15T07:10:49.693Z,8.70
2017-11-15T07:25:35.245Z,8.70
2017-11-15T07:28:03.645Z,8.70
2017-11-15T07:39:30.825Z,8.80
2017-11-15T07:41:59.031Z,8.80
2017-11-15T07:47:25.881Z,8.90
2017-11-15T07:49:55.009Z,8.90
2017-11-15T07:55:22.529Z,8.90
2017-11-15T08:04:11.603Z,9.00
2017-11-15T08:06:43.627Z,9.00
2017-11-15T08:09:12.505Z,9.00
2017-11-15T08:11:59.318Z,9.00
2017-11-15T08:14:27.494Z,9.00
2017-11-15T08:16:55.834Z,9.00
2017-11-15T08:28:56.196Z,9.10
2017-11-15T08:31:24.682Z,9.10
2017-11-15T08:33:52.976Z,9.10
2017-11-15T08:39:31.996Z,9.10
2017-11-15T08:42:00.247Z,9.10
2017-11-15T08:47:39.139Z,9.10
2017-11-15T08:50:07.285Z,9.10
2017-11-15T08:52:35.490Z,9.10
2017-11-15T08:55:05.108Z,9.10
2017-11-15T08:57:33.433Z,9.20
2017-11-15T09:00:03.137Z,9.20
2017-11-15T09:02:31.426Z,9.20
2017-11-15T09:05:00.440Z,9.20
2017-11-15T09:07:31.163Z,9.20
2017-11-15T09:09:59.323Z,9.20
2017-11-15T09:12:28.252Z,9.20
2017-11-15T09:17:31.505Z,9.20
2017-11-15T09:19:59.983Z,9.20
2017-11-15T09:22:28.672Z,9.30
2017-11-15T09:24:56.894Z,9.30
2017-11-15T09:27:48.410Z,9.20
2017-11-15T09:30:16.677Z,9.20
2017-11-15T09:32:44.886Z,9.30
2017-11-15T09:35:13.373Z,9.30
2017-11-15T09:37:42.495Z,9.30
2017-11-15T09:40:28.000Z,9.30
2017-11-15T09:42:57.499Z,9.30
2017-11-15T09:45:26.369Z,9.30
2017-11-15T09:47:54.590Z,9.20
2017-11-15T09:53:10.948Z,9.20
2017-11-15T09:55:39.786Z,9.30
2017-11-15T10:04:14.206Z,9.30
2017-11-15T10:06:42.684Z,9.20
2017-11-15T10:09:11.165Z,9.30
2017-11-15T10:11:42.618Z,9.30
2017-11-15T10:26:39.824Z,9.30
2017-11-15T10:29:12.142Z,9.30
2017-11-15T10:31:42.751Z,9.30
2017-11-15T10:34:11.027Z,9.30
2017-11-15T10:39:32.995Z,9.30
2017-11-15T10:45:12.472Z,9.40
2017-11-15T10:50:50.418Z,9.40
2017-11-15T10:53:18.720Z,9.40
2017-11-15T11:04:52.966Z,9.40
2017-11-15T11:07:21.292Z,9.50
2017-11-15T11:09:57.551Z,9.50
2017-11-15T11:16:07.112Z,9.50
2017-11-15T11:27:27.973Z,9.60
2017-11-15T11:30:09.240Z,9.60
2017-11-15T11:32:57.134Z,9.60
2017-11-15T11:35:25.971Z,9.60
2017-11-15T11:37:55.023Z,9.60
2017-11-15T11:43:42.724Z,9.50
2017-11-15T11:46:11.273Z,9.60
2017-11-15T11:48:57.805Z,9.60
2017-11-15T11:51:27.317Z,9.60
2017-11-15T11:53:57.248Z,9.60
2017-11-15T11:56:25.500Z,9.60
2017-11-15T12:02:26.528Z,9.60
2017-11-15T12:07:58.115Z,9.60
2017-11-15T12:10:30.423Z,9.50
2017-11-15T12:16:00.072Z,9.60
2017-11-15T12:18:28.769Z,9.60
2017-11-15T12:33:23.844Z,9.80
2017-11-15T12:42:11.496Z,9.80
2017-11-15T12:44:47.930Z,9.80
2017-11-15T12:47:17.305Z,9.80
2017-11-15T12:50:06.640Z,9.70
2017-11-15T13:02:15.915Z,9.60
2017-11-15T13:07:54.375Z,9.70
2017-11-15T13:10:24.269Z,9.60
2017-11-15T13:12:52.872Z,9.60
2017-11-15T13:15:29.127Z,9.60
2017-11-15T13:17:57.668Z,9.60
2017-11-15T13:20:25.862Z,9.60
2017-11-15T13:22:54.109Z,9.50
2017-11-15T13:25:28.940Z,9.60
2017-11-15T13:31:07.441Z,9.70
2017-11-15T13:36:46.680Z,9.80
2017-11-15T13:39:33.849Z,9.80
2017-11-15T13:42:02.296Z,9.70
2017-11-15T13:44:30.491Z,9.80
2017-11-15T13:50:09.525Z,9.80
2017-11-15T13:52:38.165Z,9.80
2017-11-15T13:55:07.704Z,9.80
2017-11-15T13:57:36.238Z,9.90
2017-11-15T14:06:43.849Z,9.90
2017-11-15T14:09:31.676Z,9.90
2017-11-15T14:18:11.512Z,9.90
2017-11-15T14:20:39.928Z,9.90
2017-11-15T14:23:08.982Z,9.90
2017-11-15T14:31:57.598Z,9.90
2017-11-15T14:34:25.949Z,9.80
2017-11-15T14:36:56.623Z,9.80
2017-11-15T14:39:25.180Z,9.80
2017-11-15T14:44:48.634Z,9.90
2017-11-15T14:47:18.599Z,9.90
2017-11-15T14:52:57.701Z,9.90
2017-11-15T14:58:24.154Z,9.80
2017-11-15T15:00:53.526Z,9.90
2017-11-15T15:09:47.843Z,9.80
2017-11-15T15:12:16.377Z,9.80
2017-11-15T15:14:48.683Z,9.80
2017-11-15T15:17:31.121Z,9.70
2017-11-15T15:20:00.159Z,9.70
2017-11-15T15:25:29.113Z,9.70
2017-11-15T15:27:57.618Z,9.70
2017-11-15T15:30:26.783Z,9.70
2017-11-15T15:32:55.084Z,9.70
2017-11-15T15:38:16.735Z,9.70
2017-11-15T15:40:47.582Z,9.70
2017-11-15T15:46:15.698Z,9.60
2017-11-15T15:49:02.805Z,9.60
2017-11-15T15:51:31.221Z,9.60
2017-11-15T15:59:53.482Z,9.70
2017-11-15T16:11:43.609Z,9.60
2017-11-15T16:38:59.382Z,9.50
2017-11-15T16:41:27.707Z,9.50
2017-11-15T16:50:22.951Z,9.10
2017-11-15T16:56:06.192Z,9.10
2017-11-15T16:58:38.791Z,9.20
2017-11-15T17:01:08.150Z,9.10
2017-11-15T17:03:36.619Z,9.20
2017-11-15T17:15:37.615Z,9.30
2017-11-15T17:18:22.124Z,9.30
2017-11-15T17:21:02.472Z,9.30
2017-11-15T17:23:31.035Z,9.30
2017-11-15T17:28:56.631Z,9.30
2017-11-15T17:31:28.269Z,9.30
2017-11-15T17:34:00.041Z,9.20
2017-11-15T17:36:28.707Z,9.20
2017-11-15T17:41:53.227Z,9.00
2017-11-15T17:44:22.470Z,9.00
2017-11-15T17:50:01.289Z,8.80
2017-11-15T17:52:29.796Z,8.80
2017-11-15T17:58:13.803Z,8.60
2017-11-15T18:00:43.268Z,8.70
2017-11-15T18:06:21.017Z,8.80
2017-11-15T18:12:02.360Z,9.00
2017-11-15T18:14:33.130Z,9.00
2017-11-15T18:17:01.634Z,9.00
2017-11-15T18:19:29.927Z,8.90
2017-11-15T18:22:17.174Z,8.90
2017-11-15T18:24:48.515Z,8.90
2017-11-15T18:27:17.089Z,8.80
2017-11-15T18:29:45.882Z,8.80
2017-11-15T18:35:23.693Z,8.80
2017-11-15T18:37:52.110Z,8.80
2017-11-15T18:40:21.025Z,8.80
2017-11-15T18:45:49.549Z,8.80
2017-11-15T18:48:19.537Z,8.80
2017-11-15T18:50:49.130Z,8.80
2017-11-15T18:53:18.238Z,8.80
2017-11-15T18:59:16.553Z,8.80
2017-11-15T19:01:44.826Z,8.80
2017-11-15T19:04:13.788Z,8.90
2017-11-15T19:06:56.693Z,8.90
2017-11-15T19:09:25.835Z,8.90
2017-11-15T19:12:25.019Z,8.90
2017-11-15T19:24:12.611Z,9.00
2017-11-15T19:26:57.693Z,8.90
2017-11-15T19:32:58.504Z,8.90
2017-11-15T19:35:27.874Z,9.00
2017-11-15T19:37:56.099Z,9.00
2017-11-15T19:40:24.544Z,9.00
2017-11-15T19:42:53.860Z,8.90
2017-11-15T19:45:22.198Z,8.90
2017-11-15T19:47:57.309Z,8.90
2017-11-15T19:50:27.444Z,8.90
2017-11-15T19:56:16.370Z,8.70
2017-11-15T19:58:44.621Z,8.80
2017-11-15T20:01:13.853Z,8.90
2017-11-15T20:03:42.100Z,8.90
2017-11-15T20:06:10.278Z,9.00
2017-11-15T20:08:38.505Z,9.00
2017-11-15T20:11:06.920Z,9.00
2017-11-15T20:13:35.237Z,9.00
2017-11-15T20:16:09.222Z,9.00
2017-11-15T20:18:38.797Z,9.00
2017-11-15T20:24:17.165Z,9.00
2017-11-15T20:29:43.206Z,9.00
2017-11-15T20:32:11.926Z,9.00
2017-11-15T20:34:40.387Z,8.90
2017-11-15T20:43:29.404Z,8.70
2017-11-15T20:45:57.982Z,8.60
2017-11-15T20:51:36.285Z,8.80
2017-11-15T20:54:17.974Z,8.80
2017-11-15T20:56:46.860Z,8.80
2017-11-15T20:59:15.231Z,8.90
2017-11-15T21:01:43.607Z,9.00
2017-11-15T21:04:11.894Z,9.00
2017-11-15T21:09:49.981Z,9.00
2017-11-15T21:12:18.403Z,8.80
2017-11-15T21:17:46.209Z,8.70
2017-11-15T21:23:24.780Z,8.70
2017-11-15T21:25:53.087Z,8.70
2017-11-15T21:31:31.162Z,8.80
2017-11-15T21:37:09.393Z,8.90
2017-11-15T21:39:37.787Z,9.00
2017-11-15T21:42:16.213Z,9.00
2017-11-15T21:44:45.451Z,9.10
2017-11-15T21:50:40.280Z,9.10
2017-11-15T21:53:11.028Z,9.20
2017-11-15T21:55:46.689Z,9.20
2017-11-15T21:58:14.895Z,9.20
2017-11-15T22:00:43.092Z,9.20
2017-11-15T22:03:11.296Z,9.20
2017-11-15T22:05:39.533Z,9.20
2017-11-15T22:08:26.076Z,9.10
2017-11-15T22:10:58.079Z,9.10
2017-11-15T22:13:26.271Z,9.10
2017-11-15T22:15:55.697Z,9.10
2017-11-15T22:21:48.905Z,9.00
2017-11-15T22:24:17.060Z,8.90
2017-11-15T22:26:57.678Z,8.80
2017-11-15T22:29:26.041Z,8.70
2017-11-15T22:32:10.274Z,8.60
2017-11-15T22:34:49.662Z,8.60
2017-11-15T22:37:18.133Z,8.50
2017-11-15T22:39:46.341Z,8.50
2017-11-15T22:42:17.107Z,8.60
2017-11-15T22:47:55.552Z,8.70
2017-11-15T22:50:24.612Z,8.70
2017-11-15T22:56:03.510Z,8.80
2017-11-15T22:58:31.744Z,8.80
2017-11-15T23:00:59.969Z,8.80
2017-11-15T23:03:35.562Z,8.80
2017-11-15T23:06:07.884Z,8.90
2017-11-15T23:08:36.095Z,8.90
2017-11-15T23:11:05.772Z,8.90
2017-11-15T23:16:44.310Z,8.80
2017-11-15T23:19:12.558Z,8.80
2017-11-15T23:21:40.933Z,8.80
2017-11-15T23:24:10.553Z,8.80
2017-11-15T23:26:40.745Z,8.80
2017-11-15T23:32:19.543Z,8.90
2017-11-15T23:37:58.077Z,8.90
2017-11-15T23:43:26.217Z,8.90
2017-11-15T23:45:54.558Z,8.90
2017-11-15T23:48:42.678Z,8.90
2017-11-15T23:54:20.747Z,8.90
2017-11-15T23:56:49.945Z,8.90
